Nearby METAR Reports

 

K1A5 - Macon/Franklin, North Carolina, USA
Distance from station: WSW 16mi, 25km
Updated: Wed, 01-Dec-2021 6:55pm EST
Partly cloudy
Partly cloudy
 Wind from calm
Wind: Calm
Temperature: 46°F , 8°C
Dew Point: 39°F , 4°C
Humidity: 76%
Barometer: 30.14 inHg , 1020.7 hPa
Clouds: Partly cloudy
Visibility: 10 miles , 16 km
Cloud details: Partly cloudy 12000 ft
2021/12/01 23:55 K1A5 012355Z AUTO 00000KT 10SM SCT120 08/04 A3014 RMK AO2 T00810037 10180 20080
KAVL - Asheville, North Carolina, USA
Distance from station: ENE 36mi, 59km
Updated: Wed, 01-Dec-2021 6:54pm EST
Partly cloudy
Partly cloudy
 Wind from E
Wind: E 5 mph , 7 km/h
Temperature: 54°F , 12°C
Dew Point: 39°F , 4°C
Humidity: 58%
Barometer: 30.11 inHg , 1019.6 hPa
Clouds: Partly cloudy
Visibility: 10 miles , 16 km
Cloud details: Partly cloudy 12000 ft
2021/12/01 23:54 KAVL 012354Z 10004KT 10SM SCT120 12/04 A3011 RMK AO2 SLP198 T01220044 10172 20122 53008
 
KRHP - Andrews, North Carolina, USA
Distance from station: WSW 40mi, 64km
Updated: Wed, 01-Dec-2021 6:55pm EST
Clear
Clear
 Wind from calm
Wind: Calm
Temperature: 46°F , 8°C
Dew Point: 37°F , 3°C
Humidity: 71%
Barometer: 30.11 inHg , 1019.6 hPa
Clouds: Clear
Visibility: 10 miles , 16 km
2021/12/01 23:55 KRHP 012355Z AUTO 00000KT 10SM CLR 08/03 A3011 RMK AO2 T00810034 10165 20081
KLQK - Pickens, South Carolina, USA
Distance from station: SE 42mi, 68km
Updated: Wed, 01-Dec-2021 6:55pm EST
Clear
Clear
 Wind from calm
Wind: Calm
Temperature: 59°F , 15°C
Dew Point: 45°F , 7°C
Humidity: 59%
Barometer: 30.09 inHg , 1019 hPa
Clouds: Clear
Visibility: 10 miles , 16 km
2021/12/01 23:55 KLQK 012355Z AUTO 00000KT 10SM CLR 15/07 A3009 RMK AO2 T01460070 10198 20140
 
KCEU - Clemson, South Carolina, USA
Distance from station: SSE 46mi, 75km
Updated: Wed, 01-Dec-2021 6:54pm EST
Clear
Clear
 Wind from calm
Wind: Calm
Temperature: 61°F , 16°C
Dew Point: 43°F , 6°C
Humidity: 52%
Barometer: 30.10 inHg , 1019.3 hPa
Clouds: Clear
Visibility: 10 miles , 16 km
2021/12/01 23:54 KCEU 012354Z AUTO 00000KT 10SM CLR 16/06 A3010 RMK AO2 SLP190 T01560061 10189 20156 53003
KTOC - Toccoa, Georgia, USA
Distance from station: S 49mi, 79km
Updated: Wed, 01-Dec-2021 6:55pm EST
Clear
Clear
 Wind from calm
Wind: Calm
Temperature: 57°F , 14°C
Dew Point: 45°F , 7°C
Humidity: 63%
Barometer: 30.11 inHg , 1019.6 hPa
Clouds: Clear
Visibility: 10 miles , 16 km
2021/12/01 23:55 KTOC 012355Z AUTO 00000KT 10SM CLR 14/07 A3011 RMK AO2 T01360066 10212 20136